Time;durP1;ratioP1;P1;durP2;ratioP2;P2;SDS_P1;SDS_P2;PMS_P1;PMS_P2;Temp;Humidity;BMP_temperature;BMP_pressure;BME280_temperature;BME280_humidity;BME280_pressure;Samples;Min_cycle;Max_cycle;Signal;HPM_P1;HPM_P2
2023/01/15 16:00:33;;;;;;;6.82;2.65;;;5.30;99.90;;;;;;5087892;28;20113;-72
2023/01/15 16:03:14;;;;;;;7.20;2.13;;;5.20;99.90;;;;;;5065288;28;20404;-72
2023/01/15 16:05:40;;;;;;;5.25;2.30;;;5.20;99.90;;;;;;5069064;28;20033;-72
2023/01/15 16:08:17;;;;;;;4.80;2.63;;;5.30;99.90;;;;;;5068026;28;20021;-74
2023/01/15 16:10:45;;;;;;;4.47;2.30;;;5.40;99.90;;;;;;5080258;28;20020;-74
2023/01/15 16:13:38;;;;;;;4.35;1.95;;;5.60;99.90;;;;;;5084126;28;20532;-73
2023/01/15 16:16:06;;;;;;;6.57;2.40;;;5.70;99.90;;;;;;5048346;28;20346;-74
2023/01/15 16:18:39;;;;;;;4.32;2.35;;;5.80;99.90;;;;;;5049364;28;20064;-73
2023/01/15 16:21:07;;;;;;;6.18;2.55;;;5.90;99.90;;;;;;5049998;28;20020;-72
2023/01/15 16:23:32;;;;;;;6.97;2.53;;;5.90;99.90;;;;;;5066756;28;20025;-72
2023/01/15 16:26:01;;;;;;;6.22;2.25;;;5.90;99.90;;;;;;5068069;28;20032;-73
2023/01/15 16:28:35;;;;;;;7.47;3.33;;;6.00;99.90;;;;;;5068854;28;20043;-73
2023/01/15 16:31:01;;;;;;;6.07;2.53;;;6.00;99.90;;;;;;5066927;28;20029;-73
2023/01/15 16:33:28;;;;;;;7.70;2.95;;;6.10;99.90;;;;;;5067770;28;20093;-73
2023/01/15 16:36:03;;;;;;;5.47;2.00;;;6.10;99.90;;;;;;5069455;28;20060;-72
2023/01/15 16:38:32;;;;;;;6.35;2.60;;;6.20;99.90;;;;;;5067715;28;20032;-72
2023/01/15 16:41:00;;;;;;;7.85;3.10;;;6.20;99.90;;;;;;5081664;28;20032;-72
2023/01/15 16:43:27;;;;;;;5.38;2.13;;;6.20;99.90;;;;;;5085902;28;20024;-73
2023/01/15 16:46:15;;;;;;;8.40;2.80;;;6.20;99.90;;;;;;5098668;28;20085;-72
2023/01/15 16:48:45;;;;;;;4.90;2.40;;;6.20;99.90;;;;;;5069222;28;20029;-72
2023/01/15 16:51:30;;;;;;;4.05;2.13;;;6.20;99.90;;;;;;5087224;28;20027;-73
2023/01/15 16:54:04;;;;;;;5.40;2.15;;;6.20;99.90;;;;;;5056411;28;20107;-73
2023/01/15 16:56:36;;;;;;;3.63;1.77;;;6.20;99.90;;;;;;5049765;28;20036;-72
2023/01/15 16:59:02;;;;;;;7.55;2.13;;;6.30;99.90;;;;;;5056185;28;20064;-73
2023/01/15 17:01:36;;;;;;;6.50;2.38;;;6.30;99.90;;;;;;5046734;28;20033;-74
2023/01/15 17:04:03;;;;;;;5.75;2.30;;;6.30;99.90;;;;;;5047707;28;20027;-74
2023/01/15 17:06:29;;;;;;;6.65;2.03;;;6.40;99.90;;;;;;5031776;28;20382;-70
2023/01/15 17:08:57;;;;;;;4.68;2.35;;;6.30;99.90;;;;;;5028795;28;20021;-67
2023/01/15 17:11:28;;;;;;;5.00;2.33;;;6.30;99.90;;;;;;5038874;28;20096;-69
2023/01/15 17:14:20;;;;;;;3.88;1.90;;;6.40;99.90;;;;;;5046830;28;20140;-70
2023/01/15 17:16:46;;;;;;;5.68;1.90;;;6.40;99.90;;;;;;5053372;28;20104;-70
2023/01/15 17:19:12;;;;;;;4.45;2.92;;;6.40;99.90;;;;;;5053145;28;20501;-70
2023/01/15 17:21:38;;;;;;;7.88;1.90;;;6.40;99.90;;;;;;5052168;28;20029;-70
2023/01/15 17:24:08;;;;;;;4.85;2.08;;;6.40;99.90;;;;;;5035308;28;20482;-68
2023/01/15 17:26:34;;;;;;;6.22;2.17;;;6.50;99.90;;;;;;5040370;28;20064;-71
2023/01/15 17:28:59;;;;;;;4.78;2.25;;;6.50;99.90;;;;;;5027961;28;20068;-70
2023/01/15 17:31:31;;;;;;;5.22;2.22;;;6.40;99.90;;;;;;5035039;28;20040;-69
2023/01/15 17:34:02;;;;;;;4.07;2.00;;;6.50;99.90;;;;;;5056737;28;20442;-70
2023/01/15 17:36:29;;;;;;;5.47;1.80;;;6.40;99.90;;;;;;5073008;28;20043;-69
2023/01/15 17:38:55;;;;;;;4.43;2.13;;;6.40;99.90;;;;;;5054626;28;20032;-71
2023/01/15 17:41:22;;;;;;;5.13;1.90;;;6.40;99.90;;;;;;5028362;28;20021;-69
2023/01/15 17:43:49;;;;;;;6.30;2.10;;;6.40;99.90;;;;;;5018060;28;20013;-73
2023/01/15 17:46:16;;;;;;;5.20;1.95;;;6.40;99.90;;;;;;5032448;28;20064;-69
2023/01/15 17:48:41;;;;;;;3.17;1.65;;;6.40;99.90;;;;;;5028013;28;20113;-71
2023/01/15 17:51:13;;;;;;;3.17;1.77;;;6.30;99.90;;;;;;5032836;28;20546;-70
2023/01/15 17:53:40;;;;;;;5.32;1.90;;;6.20;99.90;;;;;;5015842;28;20032;-70
2023/01/15 18:07:21;;;;;;;5.57;2.22;;;5.90;99.90;;;;;;5031745;28;20516;-69
2023/01/15 18:09:49;;;;;;;10.57;3.22;;;5.90;99.90;;;;;;5048049;28;20140;-69
2023/01/15 18:12:14;;;;;;;9.15;4.10;;;5.80;99.90;;;;;;5031855;28;20059;-69
2023/01/15 18:14:40;;;;;;;5.18;2.63;;;5.80;99.90;;;;;;5034343;28;20109;-71
2023/01/15 18:17:05;;;;;;;7.13;2.35;;;5.80;99.90;;;;;;5048225;28;20087;-68
2023/01/15 18:19:31;;;;;;;4.03;2.10;;;5.80;99.90;;;;;;5024148;28;20075;-68
2023/01/15 18:21:57;;;;;;;8.40;2.28;;;5.70;99.90;;;;;;5018540;28;20018;-70
2023/01/15 18:24:22;;;;;;;4.50;1.85;;;5.60;99.90;;;;;;5031096;28;20028;-68
2023/01/15 18:26:50;;;;;;;3.30;1.90;;;5.60;99.90;;;;;;5013924;28;20516;-68
2023/01/15 18:29:17;;;;;;;3.28;1.65;;;5.60;99.90;;;;;;5041911;28;20017;-67
2023/01/15 18:31:43;;;;;;;4.53;1.85;;;5.60;99.90;;;;;;5049056;28;20020;-68
2023/01/15 18:34:08;;;;;;;4.22;1.95;;;5.60;99.90;;;;;;5060998;28;20104;-68
2023/01/15 18:36:37;;;;;;;4.47;1.70;;;5.60;99.90;;;;;;5063415;28;20047;-69
2023/01/15 18:39:06;;;;;;;4.68;1.92;;;5.60;99.90;;;;;;5052896;28;20040;-70
2023/01/15 18:47:13;;;;;;;3.80;1.70;;;5.60;99.90;;;;;;5049657;28;20491;-69
2023/01/15 18:49:40;;;;;;;3.28;1.60;;;5.50;99.90;;;;;;5051132;28;20043;-69
2023/01/15 18:54:51;;;;;;;5.05;2.20;;;5.40;99.90;;;;;;5050244;28;20040;-71
2023/01/15 18:57:17;;;;;;;8.98;2.33;;;5.40;99.90;;;;;;5051316;28;20474;-70
2023/01/15 18:59:46;;;;;;;5.55;2.05;;;5.30;99.90;;;;;;5061202;28;20040;-69
2023/01/15 19:02:13;;;;;;;3.70;2.10;;;5.30;99.90;;;;;;5038856;28;20036;-68
2023/01/15 19:04:39;;;;;;;5.47;2.00;;;5.20;99.90;;;;;;5051272;28;20028;-68
2023/01/15 19:07:05;;;;;;;1.95;1.58;;;5.20;99.90;;;;;;5032369;28;20100;-69
2023/01/15 19:09:30;;;;;;;3.75;2.28;;;5.20;99.90;;;;;;5032615;28;20025;-69
2023/01/15 19:11:56;;;;;;;4.30;2.00;;;5.20;99.90;;;;;;5065111;28;20100;-69
2023/01/15 19:19:56;;;;;;;2.75;1.85;;;5.20;99.90;;;;;;5055034;28;20082;-69
2023/01/15 19:25:06;;;;;;;4.47;2.00;;;5.20;99.90;;;;;;5058340;28;20044;-70
2023/01/15 19:27:32;;;;;;;4.22;1.65;;;5.20;99.90;;;;;;5051237;28;20028;-68
2023/01/15 19:29:58;;;;;;;4.88;1.70;;;5.20;99.90;;;;;;5052307;28;20040;-69
2023/01/15 19:32:24;;;;;;;4.47;1.70;;;5.20;99.90;;;;;;5070209;28;20013;-69
2023/01/15 19:34:51;;;;;;;1.98;1.50;;;5.10;99.90;;;;;;5063042;28;20028;-69
2023/01/15 19:37:17;;;;;;;5.95;2.13;;;5.10;99.90;;;;;;5089741;28;20016;-67
2023/01/15 19:39:43;;;;;;;3.05;1.83;;;5.10;99.90;;;;;;5090984;28;20042;-67
2023/01/15 19:50:40;;;;;;;3.78;1.90;;;5.00;99.90;;;;;;5050842;28;20097;-69
2023/01/15 19:53:07;;;;;;;4.32;1.77;;;5.00;99.90;;;;;;5050763;28;20351;-70
2023/01/15 19:55:33;;;;;;;3.22;1.58;;;5.00;99.90;;;;;;5063629;28;20035;-70
2023/01/15 19:58:05;;;;;;;2.92;1.33;;;4.90;99.90;;;;;;5070308;28;20020;-69
2023/01/15 20:00:33;;;;;;;3.42;1.48;;;4.90;99.90;;;;;;5070757;28;20498;-70
2023/01/15 20:02:59;;;;;;;3.92;1.70;;;5.00;99.90;;;;;;5052253;28;20028;-71
2023/01/15 20:05:27;;;;;;;2.95;1.80;;;4.90;99.90;;;;;;5052308;28;20131;-70
2023/01/15 20:07:53;;;;;;;3.63;1.70;;;4.90;99.90;;;;;;5070350;28;20021;-69
2023/01/15 20:10:21;;;;;;;3.80;1.70;;;4.80;99.90;;;;;;5054373;28;20029;-71
2023/01/15 20:15:31;;;;;;;4.85;2.00;;;4.80;99.90;;;;;;5049446;28;20120;-71
2023/01/15 20:17:57;;;;;;;3.20;1.58;;;4.70;99.90;;;;;;5049957;28;20103;-70
2023/01/15 20:20:24;;;;;;;4.20;1.73;;;4.70;99.90;;;;;;5049751;28;20074;-70
2023/01/15 20:22:51;;;;;;;4.63;2.22;;;4.70;99.90;;;;;;5031463;28;20055;-69
2023/01/15 20:25:17;;;;;;;4.35;1.75;;;4.60;99.90;;;;;;5064144;28;20386;-70
2023/01/15 20:27:43;;;;;;;3.97;1.88;;;4.60;99.90;;;;;;5050227;28;20508;-69
2023/01/15 20:30:09;;;;;;;4.32;2.50;;;4.50;99.90;;;;;;5049382;28;20029;-69
2023/01/15 20:32:36;;;;;;;3.17;1.95;;;4.50;99.90;;;;;;5042396;28;20053;-72
2023/01/15 20:35:04;;;;;;;2.90;1.77;;;4.50;99.90;;;;;;5051713;28;20025;-69
2023/01/15 20:37:30;;;;;;;4.05;2.33;;;4.50;99.90;;;;;;5068010;28;20515;-68
2023/01/15 20:39:55;;;;;;;5.97;2.20;;;4.50;99.90;;;;;;5052130;28;20029;-69
